Time;durP1;ratioP1;P1;durP2;ratioP2;P2;SDS_P1;SDS_P2;PMS_P1;PMS_P2;Temp;Humidity;BMP_temperature;BMP_pressure;BME280_temperature;BME280_humidity;BME280_pressure;Samples;Min_cycle;Max_cycle;Signal;HPM_P1;HPM_P2
2022/03/19 00:00:23;;;;;;;64.53;44.63;;;;;;;;;;5012639;28;20278;-77
2022/03/19 00:02:50;;;;;;;62.63;45.53;;;;;;;;;;5012877;28;20202;-76
2022/03/19 00:05:19;;;;;;;64.43;43.87;;;;;;;;;;5012554;28;20214;-76
2022/03/19 00:07:46;;;;;;;65.43;45.17;;;;;;;;;;5011820;28;20282;-76
2022/03/19 00:10:15;;;;;;;65.30;45.57;;;;;;;;;;5012386;28;20293;-77
2022/03/19 00:12:43;;;;;;;67.83;46.37;;;;;;;;;;5012312;28;20203;-77
2022/03/19 00:15:10;;;;;;;66.60;45.90;;;;;;;;;;5013061;28;20218;-77
2022/03/19 00:17:38;;;;;;;62.10;44.17;;;;;;;;;;5011905;28;20248;-76
2022/03/19 00:20:05;;;;;;;65.77;46.27;;;;;;;;;;5012779;28;20231;-76
2022/03/19 00:22:34;;;;;;;65.87;46.17;;;;;;;;;;5012853;28;20202;-77
2022/03/19 00:25:02;;;;;;;62.83;44.40;;;;;;;;;;5012603;28;20222;-77
2022/03/19 00:27:29;;;;;;;66.53;45.80;;;;;;;;;;5011773;28;20796;-77
2022/03/19 00:29:56;;;;;;;67.30;46.00;;;;;;;;;;5012671;28;20733;-77
2022/03/19 00:32:24;;;;;;;63.83;45.33;;;;;;;;;;5012292;28;20226;-77
2022/03/19 00:34:51;;;;;;;60.13;44.30;;;;;;;;;;5012476;28;20269;-77
2022/03/19 00:37:18;;;;;;;61.40;45.07;;;;;;;;;;5010965;28;20218;-77
2022/03/19 00:39:47;;;;;;;63.77;45.33;;;;;;;;;;5011960;28;20209;-77
2022/03/19 00:42:14;;;;;;;60.30;43.40;;;;;;;;;;5011927;28;20229;-77
2022/03/19 00:44:42;;;;;;;66.20;45.37;;;;;;;;;;5012252;28;20225;-77
2022/03/19 00:47:09;;;;;;;61.90;43.40;;;;;;;;;;5011815;28;20197;-76
2022/03/19 00:49:36;;;;;;;61.33;43.83;;;;;;;;;;5012922;28;20317;-76
2022/03/19 00:52:04;;;;;;;61.23;44.63;;;;;;;;;;5012123;28;20281;-77
2022/03/19 00:54:31;;;;;;;60.90;44.37;;;;;;;;;;5011941;28;20208;-77
2022/03/19 00:57:00;;;;;;;64.07;45.03;;;;;;;;;;5011684;28;20218;-76
2022/03/19 00:59:27;;;;;;;60.57;44.00;;;;;;;;;;5011793;28;20226;-77
2022/03/19 01:01:56;;;;;;;65.30;44.83;;;;;;;;;;5011807;28;20199;-77
2022/03/19 01:04:23;;;;;;;59.50;43.53;;;;;;;;;;5011690;28;20217;-77
2022/03/19 01:06:51;;;;;;;60.67;45.10;;;;;;;;;;5011345;28;20209;-76
2022/03/19 01:09:18;;;;;;;65.57;44.23;;;;;;;;;;5005389;28;20202;-76
2022/03/19 01:11:45;;;;;;;67.77;47.33;;;;;;;;;;5012051;28;20355;-77
2022/03/19 01:14:14;;;;;;;61.53;44.57;;;;;;;;;;5012226;28;20203;-76
2022/03/19 01:16:41;;;;;;;68.57;46.50;;;;;;;;;;5011509;28;20247;-76
2022/03/19 01:19:08;;;;;;;63.67;45.87;;;;;;;;;;5012519;28;20241;-77
2022/03/19 01:21:36;;;;;;;64.37;45.43;;;;;;;;;;5014166;28;20206;-76
2022/03/19 01:24:03;;;;;;;66.13;45.13;;;;;;;;;;5015596;28;20234;-77
2022/03/19 01:26:31;;;;;;;60.97;43.60;;;;;;;;;;5015271;28;20222;-76
2022/03/19 01:28:59;;;;;;;65.20;45.17;;;;;;;;;;5015483;28;20210;-77
2022/03/19 01:31:28;;;;;;;68.73;45.77;;;;;;;;;;5015370;28;20202;-77
2022/03/19 01:33:56;;;;;;;62.60;44.57;;;;;;;;;;5015626;28;20298;-76
2022/03/19 01:36:25;;;;;;;63.60;43.73;;;;;;;;;;5024177;22;20237;-76
2022/03/19 01:38:55;;;;;;;61.23;44.93;;;;;;;;;;5003834;28;20226;-76
2022/03/19 01:41:22;;;;;;;62.97;44.67;;;;;;;;;;5015319;28;20203;-77
2022/03/19 01:43:52;;;;;;;62.90;44.17;;;;;;;;;;5015955;28;20380;-77
2022/03/19 01:46:22;;;;;;;65.37;45.43;;;;;;;;;;5015472;28;20238;-77
2022/03/19 01:48:51;;;;;;;62.07;45.53;;;;;;;;;;5015448;28;20211;-76
2022/03/19 01:51:19;;;;;;;63.43;44.80;;;;;;;;;;5017485;28;20206;-77
2022/03/19 01:53:46;;;;;;;62.27;44.73;;;;;;;;;;5018395;28;20214;-77
2022/03/19 01:56:13;;;;;;;65.20;45.53;;;;;;;;;;5035390;28;20207;-77
2022/03/19 01:58:44;;;;;;;63.13;43.67;;;;;;;;;;5021211;28;20234;-77
2022/03/19 02:01:14;;;;;;;62.03;44.10;;;;;;;;;;5021422;28;20210;-77
2022/03/19 02:03:42;;;;;;;61.93;44.63;;;;;;;;;;5020711;28;20214;-77
2022/03/19 02:06:14;;;;;;;62.70;44.47;;;;;;;;;;5020099;28;20254;-77
2022/03/19 02:08:44;;;;;;;61.30;43.73;;;;;;;;;;5018028;28;20624;-77
2022/03/19 02:11:14;;;;;;;60.17;44.00;;;;;;;;;;5017643;28;20209;-77
2022/03/19 02:13:41;;;;;;;61.70;43.63;;;;;;;;;;5018439;28;20199;-77
2022/03/19 02:16:09;;;;;;;59.10;42.20;;;;;;;;;;5017824;28;20265;-77
2022/03/19 02:18:37;;;;;;;64.17;43.63;;;;;;;;;;5016314;28;20276;-77
2022/03/19 02:21:05;;;;;;;57.63;41.40;;;;;;;;;;5017453;28;20212;-77
2022/03/19 02:26:19;;;;;;;57.90;41.77;;;;;;;;;;5016553;28;20229;-77
2022/03/19 02:28:46;;;;;;;58.50;42.13;;;;;;;;;;5015565;28;20194;-77
2022/03/19 02:31:13;;;;;;;59.13;43.17;;;;;;;;;;5015879;28;20212;-77
2022/03/19 02:33:40;;;;;;;60.57;43.30;;;;;;;;;;5015677;28;20282;-77
2022/03/19 02:36:08;;;;;;;59.07;42.53;;;;;;;;;;5014860;28;20237;-77
2022/03/19 02:38:37;;;;;;;59.40;42.57;;;;;;;;;;5014348;28;20218;-77
2022/03/19 02:41:04;;;;;;;56.73;40.27;;;;;;;;;;5015068;28;20281;-77
2022/03/19 02:43:32;;;;;;;56.90;41.03;;;;;;;;;;5014366;28;20680;-76
2022/03/19 02:45:59;;;;;;;59.23;42.30;;;;;;;;;;5014730;28;20222;-77
2022/03/19 02:48:26;;;;;;;55.20;41.30;;;;;;;;;;5013967;28;20222;-77
2022/03/19 02:50:53;;;;;;;58.30;41.37;;;;;;;;;;5014862;28;20206;-77
2022/03/19 02:53:20;;;;;;;56.53;40.43;;;;;;;;;;5014531;28;20285;-77
2022/03/19 02:55:49;;;;;;;53.67;40.17;;;;;;;;;;5014848;28;20257;-77
2022/03/19 02:58:16;;;;;;;53.87;38.57;;;;;;;;;;5013120;28;20308;-77
2022/03/19 03:00:43;;;;;;;55.80;40.53;;;;;;;;;;5014183;28;20202;-77
2022/03/19 03:03:11;;;;;;;54.30;40.37;;;;;;;;;;5013528;28;20285;-77
2022/03/19 03:05:38;;;;;;;53.80;39.13;;;;;;;;;;5013525;28;20232;-77
2022/03/19 03:08:06;;;;;;;52.37;38.83;;;;;;;;;;5012181;28;20254;-77
2022/03/19 03:10:34;;;;;;;53.83;38.90;;;;;;;;;;5012987;28;20756;-77
2022/03/19 03:13:02;;;;;;;54.60;38.77;;;;;;;;;;5013608;28;20286;-77
2022/03/19 03:15:30;;;;;;;57.80;40.50;;;;;;;;;;5013355;28;20245;-76
2022/03/19 03:17:57;;;;;;;55.57;39.67;;;;;;;;;;5012530;28;20272;-77
2022/03/19 03:20:24;;;;;;;56.47;39.97;;;;;;;;;;5013100;28;20205;-77
2022/03/19 03:22:51;;;;;;;53.03;39.07;;;;;;;;;;5013584;28;20302;-77
2022/03/19 03:25:19;;;;;;;52.93;39.57;;;;;;;;;;5013293;28;20313;-77
2022/03/19 03:27:46;;;;;;;55.50;39.93;;;;;;;;;;5012979;28;20222;-77
2022/03/19 03:30:18;;;;;;;51.77;38.50;;;;;;;;;;5013491;28;20204;-77
2022/03/19 03:32:45;;;;;;;56.63;39.20;;;;;;;;;;5014020;28;20198;-77
2022/03/19 03:35:12;;;;;;;55.93;39.57;;;;;;;;;;5012078;28;20241;-77
2022/03/19 03:37:40;;;;;;;55.23;40.20;;;;;;;;;;5011571;28;20305;-77
2022/03/19 03:40:08;;;;;;;57.10;38.23;;;;;;;;;;5012787;28;20222;-77
2022/03/19 03:42:36;;;;;;;51.13;39.30;;;;;;;;;;5012801;28;20210;-77
2022/03/19 03:45:03;;;;;;;55.97;40.07;;;;;;;;;;5013317;28;20273;-77
2022/03/19 03:47:31;;;;;;;53.30;37.47;;;;;;;;;;5012153;28;20199;-77
2022/03/19 03:49:59;;;;;;;52.87;39.10;;;;;;;;;;5012653;28;20285;-77
2022/03/19 03:52:26;;;;;;;54.20;37.87;;;;;;;;;;5012107;28;20241;-77
2022/03/19 03:54:54;;;;;;;50.50;36.93;;;;;;;;;;5012558;28;20210;-77
2022/03/19 03:57:21;;;;;;;51.77;37.53;;;;;;;;;;5012189;28;20289;-77
2022/03/19 03:59:50;;;;;;;51.73;37.70;;;;;;;;;;5013067;28;20253;-77
2022/03/19 04:02:18;;;;;;;53.60;38.50;;;;;;;;;;5012345;28;20198;-77
2022/03/19 04:04:46;;;;;;;54.97;39.33;;;;;;;;;;5013377;28;20229;-77
2022/03/19 04:07:13;;;;;;;54.17;37.93;;;;;;;;;;5012238;28;20220;-77
2022/03/19 04:09:41;;;;;;;51.83;37.30;;;;;;;;;;5013288;28;20265;-76
2022/03/19 04:12:09;;;;;;;53.50;36.10;;;;;;;;;;5012962;28;20233;-76
2022/03/19 04:14:36;;;;;;;51.60;37.67;;;;;;;;;;5012803;28;20206;-77
2022/03/19 04:17:04;;;;;;;52.47;37.67;;;;;;;;;;5012635;28;20236;-77
2022/03/19 04:19:31;;;;;;;52.37;37.47;;;;;;;;;;5012522;28;20225;-77
2022/03/19 04:22:00;;;;;;;54.90;38.23;;;;;;;;;;5013309;28;20281;-77
2022/03/19 04:24:27;;;;;;;53.80;38.67;;;;;;;;;;5012959;28;20285;-77
2022/03/19 04:26:54;;;;;;;52.63;37.57;;;;;;;;;;5011896;28;20222;-77
2022/03/19 04:29:21;;;;;;;55.83;39.20;;;;;;;;;;5012335;28;20614;-76
2022/03/19 04:31:48;;;;;;;53.37;37.97;;;;;;;;;;5012829;28;20297;-79
2022/03/19 04:34:16;;;;;;;53.60;38.47;;;;;;;;;;5013049;28;20286;-76
2022/03/19 04:36:43;;;;;;;54.90;38.77;;;;;;;;;;5012099;28;20264;-79
2022/03/19 04:39:12;;;;;;;53.27;37.60;;;;;;;;;;5012784;28;20232;-79
2022/03/19 04:41:41;;;;;;;51.67;36.97;;;;;;;;;;5012859;28;20198;-78
2022/03/19 04:44:09;;;;;;;49.90;37.03;;;;;;;;;;5012837;28;20238;-76
2022/03/19 04:46:36;;;;;;;51.63;37.40;;;;;;;;;;5011994;28;20317;-76
2022/03/19 04:49:04;;;;;;;54.83;37.57;;;;;;;;;;5012905;28;20209;-77
2022/03/19 04:51:32;;;;;;;50.70;36.77;;;;;;;;;;5013254;28;20249;-77
2022/03/19 04:54:00;;;;;;;52.37;37.03;;;;;;;;;;5012341;28;20202;-79
2022/03/19 04:56:29;;;;;;;53.27;36.57;;;;;;;;;;5014850;28;20278;-77
2022/03/19 04:58:57;;;;;;;47.27;35.57;;;;;;;;;;5014780;28;20222;-77
2022/03/19 05:01:26;;;;;;;52.40;37.37;;;;;;;;;;5015397;28;20202;-77
2022/03/19 05:03:53;;;;;;;53.70;37.97;;;;;;;;;;5015856;28;20195;-77
2022/03/19 05:06:21;;;;;;;51.77;37.60;;;;;;;;;;5015928;28;20222;-79
2022/03/19 05:11:12;;;;;;;51.60;36.63;;;;;;;;;;5015129;28;20203;-79
2022/03/19 05:11:35;;;;;;;52.80;37.63;;;;;;;;;;5014619;28;20269;-79
2022/03/19 05:14:04;;;;;;;52.97;37.73;;;;;;;;;;5016836;28;20194;-79
2022/03/19 05:16:31;;;;;;;54.90;37.23;;;;;;;;;;5016449;28;20214;-78
2022/03/19 05:18:58;;;;;;;55.37;38.40;;;;;;;;;;5015597;28;20223;-77
2022/03/19 05:21:27;;;;;;;52.33;37.40;;;;;;;;;;5007879;28;20309;-77
2022/03/19 05:23:54;;;;;;;53.37;38.77;;;;;;;;;;5009662;28;20207;-77
2022/03/19 05:26:21;;;;;;;52.50;37.70;;;;;;;;;;5015372;28;20218;-77
2022/03/19 05:28:50;;;;;;;52.13;38.23;;;;;;;;;;5011650;28;20234;-77
2022/03/19 05:31:17;;;;;;;56.23;37.87;;;;;;;;;;5011649;28;20301;-77
2022/03/19 05:36:29;;;;;;;55.57;37.17;;;;;;;;;;5014826;28;20225;-77
2022/03/19 05:38:56;;;;;;;55.20;38.47;;;;;;;;;;5014092;28;20219;-77
2022/03/19 05:41:23;;;;;;;52.17;37.20;;;;;;;;;;5015503;28;20207;-77
2022/03/19 05:43:52;;;;;;;53.53;36.37;;;;;;;;;;5000621;28;20210;-77
2022/03/19 05:46:19;;;;;;;56.87;38.87;;;;;;;;;;4995711;28;20306;-76
2022/03/19 05:48:46;;;;;;;54.63;37.93;;;;;;;;;;4995338;28;20692;-77
2022/03/19 05:51:13;;;;;;;52.77;38.63;;;;;;;;;;4995640;28;20210;-77
2022/03/19 05:53:41;;;;;;;54.57;37.63;;;;;;;;;;4995730;28;20214;-77
2022/03/19 05:56:08;;;;;;;52.07;37.13;;;;;;;;;;4995772;28;20229;-77
2022/03/19 05:58:35;;;;;;;55.83;38.43;;;;;;;;;;4994775;28;20230;-77
2022/03/19 06:01:03;;;;;;;53.43;38.00;;;;;;;;;;4995630;28;20225;-77
2022/03/19 06:03:31;;;;;;;48.83;36.20;;;;;;;;;;5015310;28;20285;-78
2022/03/19 06:05:58;;;;;;;54.60;37.83;;;;;;;;;;5014697;28;20242;-78
2022/03/19 06:08:25;;;;;;;54.80;37.90;;;;;;;;;;5008104;28;20221;-78
2022/03/19 06:10:52;;;;;;;53.50;37.50;;;;;;;;;;4999265;28;20282;-78
2022/03/19 06:13:19;;;;;;;53.43;38.83;;;;;;;;;;5000000;28;20210;-79
2022/03/19 06:15:46;;;;;;;51.33;37.40;;;;;;;;;;5000885;28;20223;-79
2022/03/19 06:18:17;;;;;;;54.93;38.20;;;;;;;;;;5010339;28;20303;-79
2022/03/19 06:20:44;;;;;;;53.87;38.17;;;;;;;;;;5001448;28;20290;-79
2022/03/19 06:23:12;;;;;;;52.47;36.87;;;;;;;;;;5012547;28;20230;-79
2022/03/19 06:25:39;;;;;;;49.67;36.67;;;;;;;;;;5008026;28;20251;-79
2022/03/19 06:28:06;;;;;;;49.30;36.23;;;;;;;;;;4999851;28;20221;-79
2022/03/19 06:30:37;;;;;;;47.80;35.90;;;;;;;;;;5000380;28;20207;-79
2022/03/19 06:33:04;;;;;;;53.93;37.67;;;;;;;;;;5013224;28;20202;-79
2022/03/19 06:38:18;;;;;;;49.47;35.43;;;;;;;;;;5018683;28;20253;-79
2022/03/19 06:40:45;;;;;;;50.47;36.27;;;;;;;;;;5019762;28;20685;-79
2022/03/19 06:43:13;;;;;;;48.73;37.30;;;;;;;;;;5018948;28;20199;-79
2022/03/19 06:45:40;;;;;;;50.27;36.23;;;;;;;;;;5018874;28;20230;-79
2022/03/19 06:48:07;;;;;;;49.33;35.73;;;;;;;;;;5017898;28;20198;-79
2022/03/19 06:50:38;;;;;;;50.77;35.50;;;;;;;;;;5016934;28;20298;-79
2022/03/19 06:53:06;;;;;;;46.83;35.40;;;;;;;;;;5016325;28;20199;-79
2022/03/19 06:55:33;;;;;;;44.93;34.37;;;;;;;;;;5000541;28;20235;-79
2022/03/19 06:58:00;;;;;;;46.60;34.47;;;;;;;;;;5020657;28;20281;-79
2022/03/19 07:00:28;;;;;;;46.40;34.93;;;;;;;;;;5022789;28;20228;-80
2022/03/19 07:02:56;;;;;;;45.97;35.20;;;;;;;;;;5023115;28;20206;-79
2022/03/19 07:05:24;;;;;;;47.33;35.13;;;;;;;;;;5029039;28;20233;-79
2022/03/19 07:07:53;;;;;;;46.53;33.53;;;;;;;;;;5033487;28;20266;-79
2022/03/19 07:10:20;;;;;;;42.60;33.53;;;;;;;;;;5031972;28;20262;-79
2022/03/19 07:12:51;;;;;;;42.43;33.00;;;;;;;;;;5032859;28;20233;-79
2022/03/19 07:15:19;;;;;;;44.90;33.50;;;;;;;;;;5017963;28;20250;-79
2022/03/19 07:17:46;;;;;;;41.83;32.77;;;;;;;;;;5018412;28;20310;-79
2022/03/19 07:20:15;;;;;;;43.13;32.43;;;;;;;;;;5018524;28;20230;-83
2022/03/19 07:22:49;;;;;;;42.10;32.50;;;;;;;;;;5013094;28;20203;-79
2022/03/19 07:25:18;;;;;;;41.83;32.80;;;;;;;;;;5014002;28;20227;-80
2022/03/19 07:27:45;;;;;;;41.90;31.90;;;;;;;;;;5013200;28;20237;-79
2022/03/19 07:30:13;;;;;;;41.93;32.43;;;;;;;;;;5012040;28;20289;-84
2022/03/19 07:32:43;;;;;;;42.47;30.90;;;;;;;;;;5008968;28;20214;-79
2022/03/19 07:35:14;;;;;;;41.17;31.90;;;;;;;;;;5014351;28;20234;-79
2022/03/19 07:37:44;;;;;;;41.17;32.17;;;;;;;;;;5011952;28;20216;-78
2022/03/19 07:40:13;;;;;;;38.50;30.73;;;;;;;;;;5013178;28;20234;-78
2022/03/19 07:42:41;;;;;;;42.63;31.83;;;;;;;;;;5011832;28;20253;-76
2022/03/19 07:45:09;;;;;;;42.40;31.50;;;;;;;;;;5012025;28;20265;-76
2022/03/19 07:47:40;;;;;;;38.57;31.27;;;;;;;;;;5010928;28;20207;-76
2022/03/19 07:50:07;;;;;;;40.03;30.83;;;;;;;;;;5005423;28;20393;-80
2022/03/19 07:52:34;;;;;;;38.17;29.67;;;;;;;;;;5007114;28;20198;-80
2022/03/19 07:55:02;;;;;;;40.00;29.23;;;;;;;;;;5009910;28;20203;-81
2022/03/19 07:57:33;;;;;;;39.30;29.33;;;;;;;;;;5013466;28;20203;-82
2022/03/19 08:00:02;;;;;;;37.37;29.07;;;;;;;;;;5013632;28;20237;-85
2022/03/19 08:02:29;;;;;;;37.30;28.83;;;;;;;;;;5015641;28;20199;-79
2022/03/19 08:05:00;;;;;;;40.20;28.83;;;;;;;;;;5006314;28;20203;-80
2022/03/19 08:07:27;;;;;;;36.10;28.00;;;;;;;;;;5011615;28;20202;-77
2022/03/19 08:09:54;;;;;;;36.23;28.07;;;;;;;;;;5007270;28;20658;-77
2022/03/19 08:12:24;;;;;;;32.70;26.63;;;;;;;;;;5010229;28;20238;-78
2022/03/19 08:14:55;;;;;;;34.30;27.73;;;;;;;;;;5007832;28;20207;-75
2022/03/19 08:17:37;;;;;;;35.97;26.93;;;;;;;;;;5005112;28;20756;-77
2022/03/19 08:20:06;;;;;;;31.47;26.27;;;;;;;;;;5011170;28;20230;-77
2022/03/19 08:22:33;;;;;;;31.93;25.57;;;;;;;;;;5012268;28;20246;-79
2022/03/19 08:25:01;;;;;;;30.87;25.03;;;;;;;;;;5010247;28;20266;-77
2022/03/19 08:27:31;;;;;;;34.23;26.27;;;;;;;;;;5011332;28;20669;-77
2022/03/19 08:29:59;;;;;;;34.17;25.97;;;;;;;;;;5012909;28;20263;-77
2022/03/19 08:32:28;;;;;;;32.70;25.63;;;;;;;;;;5015767;28;20213;-78
2022/03/19 08:34:56;;;;;;;30.60;25.07;;;;;;;;;;5015474;28;20206;-77
2022/03/19 08:40:28;;;;;;;31.97;25.23;;;;;;;;;;5019816;28;20226;-82
2022/03/19 08:45:39;;;;;;;30.87;24.63;;;;;;;;;;5015975;28;20238;-77
2022/03/19 08:48:29;;;;;;;;;;;;;;;;;;;;;
2022/03/19 08:51:39;;;;;;;34.17;23.97;;;;;;;;;;5015429;28;20646;-78
2022/03/19 08:53:44;;;;;;;30.97;23.50;;;;;;;;;;5012534;28;20311;-77
2022/03/19 08:56:11;;;;;;;30.70;23.67;;;;;;;;;;5015539;28;20226;-78
2022/03/19 08:58:43;;;;;;;29.70;24.00;;;;;;;;;;5017037;28;20276;-76
2022/03/19 09:01:11;;;;;;;30.07;23.83;;;;;;;;;;5017138;28;20320;-77
2022/03/19 09:03:42;;;;;;;28.67;23.03;;;;;;;;;;5016773;28;20214;-79
2022/03/19 09:06:23;;;;;;;27.37;22.43;;;;;;;;;;5017566;28;20230;-78
2022/03/19 09:08:52;;;;;;;29.60;24.63;;;;;;;;;;5014171;28;20272;-85
2022/03/19 09:11:20;;;;;;;32.50;26.37;;;;;;;;;;5020569;28;20368;-83
2022/03/19 09:13:47;;;;;;;34.57;27.07;;;;;;;;;;5019749;28;20213;-80
2022/03/19 09:16:14;;;;;;;32.53;25.40;;;;;;;;;;5019355;28;20238;-80
2022/03/19 09:18:43;;;;;;;28.67;24.53;;;;;;;;;;5016535;28;20238;-78
2022/03/19 09:21:11;;;;;;;29.87;24.67;;;;;;;;;;5018447;28;20227;-76
2022/03/19 09:23:39;;;;;;;32.80;25.53;;;;;;;;;;5016043;28;20297;-76
2022/03/19 09:26:06;;;;;;;30.60;24.80;;;;;;;;;;5015426;28;20242;-78
2022/03/19 09:28:34;;;;;;;37.13;29.53;;;;;;;;;;5016115;28;20229;-78
2022/03/19 09:31:01;;;;;;;31.13;24.67;;;;;;;;;;5015387;28;20256;-76
2022/03/19 09:33:28;;;;;;;35.90;27.23;;;;;;;;;;5015096;28;20274;-77
2022/03/19 09:36:00;;;;;;;29.90;24.40;;;;;;;;;;5015026;28;20230;-77
2022/03/19 09:38:28;;;;;;;32.67;25.83;;;;;;;;;;5014401;28;20210;-76
2022/03/19 09:40:56;;;;;;;30.30;24.93;;;;;;;;;;5014821;28;20289;-77
2022/03/19 09:43:23;;;;;;;28.73;24.37;;;;;;;;;;5015023;28;20203;-79
2022/03/19 09:45:50;;;;;;;27.27;23.40;;;;;;;;;;5014795;28;20293;-78
2022/03/19 09:48:17;;;;;;;30.67;25.30;;;;;;;;;;5014358;28;20210;-78
2022/03/19 09:50:45;;;;;;;28.93;23.83;;;;;;;;;;5015129;28;20210;-77
2022/03/19 09:53:13;;;;;;;27.53;24.23;;;;;;;;;;5017155;28;20206;-79
2022/03/19 09:55:41;;;;;;;29.97;24.53;;;;;;;;;;5016121;28;20313;-78
2022/03/19 09:58:09;;;;;;;29.97;25.00;;;;;;;;;;5013425;28;20241;-77
2022/03/19 10:00:37;;;;;;;29.83;24.90;;;;;;;;;;5014522;28;20233;-77
2022/03/19 10:03:05;;;;;;;29.97;24.73;;;;;;;;;;5013278;28;20198;-78
2022/03/19 10:08:39;;;;;;;30.43;26.33;;;;;;;;;;5013442;28;20202;-77
2022/03/19 10:11:06;;;;;;;26.87;23.30;;;;;;;;;;5014356;28;20222;-76
2022/03/19 10:13:34;;;;;;;27.73;23.40;;;;;;;;;;5014176;28;20301;-76
2022/03/19 10:16:02;;;;;;;28.00;24.17;;;;;;;;;;5013805;28;20242;-76
2022/03/19 10:18:29;;;;;;;30.50;24.13;;;;;;;;;;5013318;28;20203;-76
2022/03/19 10:20:56;;;;;;;30.10;24.63;;;;;;;;;;5010174;28;20219;-77
2022/03/19 10:23:35;;;;;;;29.30;24.77;;;;;;;;;;5013395;28;20254;-76
2022/03/19 10:26:05;;;;;;;31.13;25.70;;;;;;;;;;5010358;28;20313;-75
2022/03/19 10:28:34;;;;;;;31.90;27.00;;;;;;;;;;5012743;28;20249;-78
2022/03/19 10:31:01;;;;;;;30.77;26.63;;;;;;;;;;5014091;28;20203;-76
2022/03/19 10:33:30;;;;;;;30.20;25.70;;;;;;;;;;5014231;28;20210;-76
2022/03/19 10:36:07;;;;;;;31.77;26.53;;;;;;;;;;5013373;28;20239;-79
2022/03/19 10:38:43;;;;;;;30.90;25.87;;;;;;;;;;5013984;28;20216;-79
2022/03/19 10:41:11;;;;;;;31.47;26.50;;;;;;;;;;5013736;28;20218;-78
2022/03/19 10:43:42;;;;;;;29.60;26.33;;;;;;;;;;5012457;28;20211;-77
2022/03/19 10:46:09;;;;;;;31.83;26.10;;;;;;;;;;5013747;28;20269;-77
2022/03/19 10:48:37;;;;;;;32.43;27.37;;;;;;;;;;5013072;28;20206;-83
2022/03/19 10:51:08;;;;;;;33.10;27.77;;;;;;;;;;5013208;28;20199;-76
2022/03/19 10:53:36;;;;;;;33.63;27.80;;;;;;;;;;5012301;28;20293;-76
2022/03/19 10:56:07;;;;;;;33.10;28.07;;;;;;;;;;5012209;28;20314;-77
2022/03/19 10:58:34;;;;;;;28.10;25.10;;;;;;;;;;5007705;28;20225;-76
2022/03/19 11:01:04;;;;;;;28.90;24.63;;;;;;;;;;5011397;28;20246;-76
2022/03/19 11:03:33;;;;;;;27.40;23.67;;;;;;;;;;5007404;28;20265;-77
2022/03/19 11:06:04;;;;;;;29.10;25.47;;;;;;;;;;5011809;28;20250;-76
2022/03/19 11:08:34;;;;;;;28.63;24.73;;;;;;;;;;5007502;28;20215;-76
2022/03/19 11:11:04;;;;;;;21.97;19.33;;;;;;;;;;5012127;28;20202;-76
2022/03/19 11:13:37;;;;;;;21.57;18.60;;;;;;;;;;5012700;28;20199;-76
2022/03/19 11:16:05;;;;;;;23.03;17.57;;;;;;;;;;5012232;28;20257;-76
2022/03/19 11:18:33;;;;;;;19.97;16.97;;;;;;;;;;5012173;28;20205;-76
2022/03/19 11:21:01;;;;;;;21.27;16.97;;;;;;;;;;5011726;28;20230;-76
2022/03/19 11:23:31;;;;;;;17.63;14.67;;;;;;;;;;5012074;28;20249;-76
2022/03/19 11:25:59;;;;;;;19.03;15.53;;;;;;;;;;5012763;28;20226;-76
2022/03/19 11:28:26;;;;;;;18.73;14.87;;;;;;;;;;5010961;28;20206;-77
2022/03/19 11:31:03;;;;;;;18.00;14.93;;;;;;;;;;5012665;28;20289;-76
2022/03/19 11:33:31;;;;;;;17.20;13.93;;;;;;;;;;5011425;28;20276;-76
2022/03/19 11:36:06;;;;;;;15.07;12.80;;;;;;;;;;5011592;28;20246;-76
2022/03/19 11:38:37;;;;;;;15.33;12.70;;;;;;;;;;5011975;28;20206;-76
2022/03/19 11:41:17;;;;;;;16.83;13.17;;;;;;;;;;5012142;28;20228;-77
2022/03/19 11:43:44;;;;;;;14.67;12.57;;;;;;;;;;5012879;28;20241;-77
2022/03/19 11:46:14;;;;;;;16.13;13.17;;;;;;;;;;5013083;28;20236;-77
2022/03/19 11:48:47;;;;;;;17.10;13.57;;;;;;;;;;5011807;28;20211;-76
2022/03/19 11:51:22;;;;;;;15.00;12.07;;;;;;;;;;5006116;28;20290;-76
2022/03/19 11:53:53;;;;;;;14.87;11.80;;;;;;;;;;5013222;28;20207;-76
2022/03/19 11:56:20;;;;;;;13.67;11.20;;;;;;;;;;5012421;28;20313;-76
2022/03/19 11:58:47;;;;;;;11.90;10.30;;;;;;;;;;5012389;28;20210;-76
2022/03/19 12:01:16;;;;;;;11.23;10.00;;;;;;;;;;5012750;28;20226;-76
2022/03/19 12:04:03;;;;;;;13.97;10.77;;;;;;;;;;5012043;28;20202;-76
2022/03/19 12:06:31;;;;;;;13.57;10.70;;;;;;;;;;5012162;28;20226;-77
2022/03/19 12:08:59;;;;;;;12.90;10.33;;;;;;;;;;5011199;28;20202;-76
2022/03/19 12:11:26;;;;;;;13.63;11.37;;;;;;;;;;5012414;28;20213;-76
2022/03/19 12:13:54;;;;;;;13.67;11.27;;;;;;;;;;5011866;28;20213;-76
2022/03/19 12:16:42;;;;;;;12.97;10.87;;;;;;;;;;5011889;28;20222;-76
2022/03/19 12:19:10;;;;;;;13.67;10.70;;;;;;;;;;5012289;28;20272;-77
2022/03/19 12:21:38;;;;;;;12.57;9.97;;;;;;;;;;5012300;28;20348;-76
2022/03/19 12:24:19;;;;;;;14.60;11.43;;;;;;;;;;5011605;28;20233;-76
2022/03/19 12:26:49;;;;;;;14.80;11.70;;;;;;;;;;5011110;28;20245;-76
2022/03/19 12:29:17;;;;;;;11.87;10.67;;;;;;;;;;5011585;28;20273;-76
2022/03/19 12:31:48;;;;;;;13.27;11.20;;;;;;;;;;5011641;28;20208;-76
2022/03/19 12:34:16;;;;;;;13.77;11.27;;;;;;;;;;5011730;28;20234;-76
2022/03/19 12:36:43;;;;;;;14.23;10.10;;;;;;;;;;5011245;28;20245;-76
2022/03/19 12:39:13;;;;;;;10.97;9.70;;;;;;;;;;5011484;28;20206;-76
2022/03/19 12:41:41;;;;;;;11.07;9.70;;;;;;;;;;5010212;28;20298;-76
2022/03/19 12:44:10;;;;;;;13.10;10.07;;;;;;;;;;5011443;28;20206;-77
2022/03/19 12:46:38;;;;;;;12.40;8.57;;;;;;;;;;5011466;28;20261;-77
2022/03/19 12:49:10;;;;;;;10.67;8.13;;;;;;;;;;5011164;28;20214;-77
2022/03/19 12:51:39;;;;;;;12.47;8.77;;;;;;;;;;5011404;28;20217;-77
2022/03/19 12:54:17;;;;;;;10.03;8.17;;;;;;;;;;5011481;28;20210;-77
2022/03/19 12:56:44;;;;;;;9.50;8.07;;;;;;;;;;5011487;28;20226;-77
2022/03/19 12:59:22;;;;;;;9.73;8.27;;;;;;;;;;5012999;28;20203;-77
2022/03/19 13:01:53;;;;;;;11.03;8.27;;;;;;;;;;5015037;28;20234;-77
2022/03/19 13:04:25;;;;;;;13.50;8.70;;;;;;;;;;5014206;28;20214;-77
2022/03/19 13:06:53;;;;;;;10.67;7.93;;;;;;;;;;5015753;28;20258;-77
2022/03/19 13:09:33;;;;;;;11.00;7.80;;;;;;;;;;5017345;28;20261;-77
2022/03/19 13:12:01;;;;;;;8.63;6.97;;;;;;;;;;5016646;28;20210;-76
2022/03/19 13:14:28;;;;;;;9.50;7.20;;;;;;;;;;5015719;28;20203;-78
2022/03/19 13:16:55;;;;;;;7.83;6.57;;;;;;;;;;5012705;28;20248;-77
2022/03/19 13:19:24;;;;;;;9.03;7.00;;;;;;;;;;5014983;28;20206;-77
2022/03/19 13:21:52;;;;;;;10.00;7.13;;;;;;;;;;5014865;28;20254;-77
2022/03/19 13:24:20;;;;;;;8.17;6.87;;;;;;;;;;5015033;28;20306;-77
2022/03/19 13:26:48;;;;;;;8.47;6.63;;;;;;;;;;5014390;28;20230;-77
2022/03/19 13:29:16;;;;;;;9.10;7.17;;;;;;;;;;5014791;28;20205;-76
2022/03/19 13:31:54;;;;;;;12.20;7.83;;;;;;;;;;5014710;28;20284;-77
2022/03/19 13:34:21;;;;;;;10.00;7.23;;;;;;;;;;5014769;28;20243;-77
2022/03/19 13:36:54;;;;;;;8.30;6.90;;;;;;;;;;5039472;22;20262;-76
2022/03/19 13:39:22;;;;;;;8.00;6.80;;;;;;;;;;5014990;28;20218;-77
2022/03/19 13:41:50;;;;;;;7.63;6.23;;;;;;;;;;5022525;28;20264;-77
2022/03/19 13:44:30;;;;;;;7.17;6.40;;;;;;;;;;5024810;28;20203;-77
2022/03/19 13:47:05;;;;;;;7.83;6.33;;;;;;;;;;5013855;28;20239;-76
2022/03/19 13:49:36;;;;;;;9.23;7.27;;;;;;;;;;5014449;28;20216;-79
2022/03/19 13:52:06;;;;;;;7.97;6.30;;;;;;;;;;5013903;28;20202;-77
2022/03/19 13:54:46;;;;;;;6.53;5.50;;;;;;;;;;5011843;28;20261;-75
2022/03/19 13:57:14;;;;;;;6.73;5.70;;;;;;;;;;5013465;28;20250;-77
2022/03/19 13:59:43;;;;;;;7.83;5.67;;;;;;;;;;5014259;28;20208;-77
2022/03/19 14:02:11;;;;;;;7.90;5.47;;;;;;;;;;5013686;28;20317;-78
2022/03/19 14:04:38;;;;;;;5.47;4.87;;;;;;;;;;5014246;28;20302;-77
2022/03/19 14:07:07;;;;;;;5.77;4.20;;;;;;;;;;5013483;28;20337;-78
2022/03/19 14:09:34;;;;;;;5.67;4.50;;;;;;;;;;5014144;28;20234;-79
2022/03/19 14:12:02;;;;;;;6.30;4.60;;;;;;;;;;5013908;28;20234;-78
2022/03/19 14:14:36;;;;;;;5.00;3.97;;;;;;;;;;5014056;28;20237;-77
2022/03/19 14:17:04;;;;;;;4.77;4.00;;;;;;;;;;5013159;28;20292;-79
2022/03/19 14:19:32;;;;;;;5.40;4.03;;;;;;;;;;5013898;28;20264;-78
2022/03/19 14:21:59;;;;;;;5.67;3.80;;;;;;;;;;5013689;28;20250;-78
2022/03/19 14:24:31;;;;;;;4.67;4.10;;;;;;;;;;5013907;28;20301;-78
2022/03/19 14:26:59;;;;;;;3.90;3.50;;;;;;;;;;5012589;28;20230;-77
2022/03/19 14:29:26;;;;;;;4.70;3.63;;;;;;;;;;5013333;28;20207;-77
2022/03/19 14:31:57;;;;;;;5.10;3.70;;;;;;;;;;5013520;28;20210;-77
2022/03/19 14:34:24;;;;;;;4.20;3.80;;;;;;;;;;5013376;28;20217;-78
2022/03/19 14:36:51;;;;;;;5.47;3.63;;;;;;;;;;5012596;28;20234;-80
2022/03/19 14:39:19;;;;;;;3.67;3.13;;;;;;;;;;5013709;28;20214;-78
2022/03/19 14:41:48;;;;;;;4.67;3.20;;;;;;;;;;5006818;28;20302;-78
2022/03/19 14:44:16;;;;;;;3.97;2.90;;;;;;;;;;5005607;28;20266;-80
2022/03/19 14:46:43;;;;;;;3.87;3.10;;;;;;;;;;5000511;28;20233;-77